sensor_id;sensor_type;location;lat;lon;timestamp;temperature;humidity
55693;DHT22;41590;53.366;5.212;2022-12-15T00:01:00;2.10;99.90
55693;DHT22;41590;53.366;5.212;2022-12-15T00:03:49;3.00;99.90
55693;DHT22;41590;53.366;5.212;2022-12-15T00:06:37;2.20;99.90
55693;DHT22;41590;53.366;5.212;2022-12-15T00:09:29;2.90;99.90
55693;DHT22;41590;53.366;5.212;2022-12-15T00:12:20;2.20;99.90
55693;DHT22;41590;53.366;5.212;2022-12-15T00:15:06;2.20;99.90
55693;DHT22;41590;53.366;5.212;2022-12-15T00:18:04;2.30;99.90
55693;DHT22;41590;53.366;5.212;2022-12-15T00:20:50;2.20;99.90
55693;DHT22;41590;53.366;5.212;2022-12-15T00:23:45;3.20;99.90
55693;DHT22;41590;53.366;5.212;2022-12-15T00:26:33;2.00;99.90
55693;DHT22;41590;53.366;5.212;2022-12-15T00:29:17;2.30;99.90
55693;DHT22;41590;53.366;5.212;2022-12-15T00:32:04;2.90;99.90
55693;DHT22;41590;53.366;5.212;2022-12-15T00:34:56;2.40;99.90
55693;DHT22;41590;53.366;5.212;2022-12-15T00:37:40;2.90;99.90
55693;DHT22;41590;53.366;5.212;2022-12-15T00:40:25;2.80;99.90
55693;DHT22;41590;53.366;5.212;2022-12-15T00:42:55;3.00;99.90
55693;DHT22;41590;53.366;5.212;2022-12-15T00:45:25;1.90;99.90
55693;DHT22;41590;53.366;5.212;2022-12-15T00:48:13;2.80;99.90
55693;DHT22;41590;53.366;5.212;2022-12-15T00:50:43;3.50;99.90
55693;DHT22;41590;53.366;5.212;2022-12-15T00:53:23;3.40;99.90
55693;DHT22;41590;53.366;5.212;2022-12-15T00:56:17;2.50;99.90
55693;DHT22;41590;53.366;5.212;2022-12-15T00:59:06;3.00;99.90
55693;DHT22;41590;53.366;5.212;2022-12-15T01:02:02;2.40;99.90
55693;DHT22;41590;53.366;5.212;2022-12-15T01:04:47;2.70;99.90
55693;DHT22;41590;53.366;5.212;2022-12-15T01:07:33;3.30;99.90
55693;DHT22;41590;53.366;5.212;2022-12-15T01:10:18;3.10;99.90
55693;DHT22;41590;53.366;5.212;2022-12-15T01:13:04;2.90;99.90
55693;DHT22;41590;53.366;5.212;2022-12-15T01:15:48;3.20;99.90
55693;DHT22;41590;53.366;5.212;2022-12-15T01:18:40;3.10;99.90
55693;DHT22;41590;53.366;5.212;2022-12-15T01:21:24;2.00;99.90
55693;DHT22;41590;53.366;5.212;2022-12-15T01:24:12;1.90;99.90
55693;DHT22;41590;53.366;5.212;2022-12-15T01:26:41;2.10;99.90
55693;DHT22;41590;53.366;5.212;2022-12-15T01:29:26;3.40;99.90
55693;DHT22;41590;53.366;5.212;2022-12-15T01:32:05;2.70;99.90
55693;DHT22;41590;53.366;5.212;2022-12-15T01:34:48;3.00;99.90
55693;DHT22;41590;53.366;5.212;2022-12-15T01:37:21;3.60;99.90
55693;DHT22;41590;53.366;5.212;2022-12-15T01:39:46;2.20;99.90
55693;DHT22;41590;53.366;5.212;2022-12-15T01:42:39;3.00;99.90
55693;DHT22;41590;53.366;5.212;2022-12-15T01:45:43;2.90;99.90
55693;DHT22;41590;53.366;5.212;2022-12-15T01:48:14;2.00;99.90
55693;DHT22;41590;53.366;5.212;2022-12-15T01:51:12;1.80;99.90
55693;DHT22;41590;53.366;5.212;2022-12-15T01:54:06;1.40;99.90
55693;DHT22;41590;53.366;5.212;2022-12-15T01:56:44;1.30;99.90
55693;DHT22;41590;53.366;5.212;2022-12-15T01:59:35;1.40;99.90
55693;DHT22;41590;53.366;5.212;2022-12-15T02:02:04;1.10;99.90
55693;DHT22;41590;53.366;5.212;2022-12-15T02:04:56;2.10;99.90
55693;DHT22;41590;53.366;5.212;2022-12-15T02:07:25;0.80;99.90
55693;DHT22;41590;53.366;5.212;2022-12-15T02:10:08;1.50;99.90
55693;DHT22;41590;53.366;5.212;2022-12-15T02:15:51;1.10;99.90
55693;DHT22;41590;53.366;5.212;2022-12-15T02:21:36;0.90;99.90
55693;DHT22;41590;53.366;5.212;2022-12-15T02:33:02;1.70;99.90
55693;DHT22;41590;53.366;5.212;2022-12-15T02:38:40;1.70;99.90
55693;DHT22;41590;53.366;5.212;2022-12-15T02:44:11;2.00;99.90
55693;DHT22;41590;53.366;5.212;2022-12-15T03:00:10;2.30;99.90
55693;DHT22;41590;53.366;5.212;2022-12-15T03:02:44;2.40;99.90
55693;DHT22;41590;53.366;5.212;2022-12-15T03:05:13;3.30;99.90
55693;DHT22;41590;53.366;5.212;2022-12-15T03:07:40;3.60;99.90
55693;DHT22;41590;53.366;5.212;2022-12-15T03:10:12;3.70;99.90
55693;DHT22;41590;53.366;5.212;2022-12-15T03:12:48;2.50;99.90
55693;DHT22;41590;53.366;5.212;2022-12-15T03:15:17;3.00;99.90
55693;DHT22;41590;53.366;5.212;2022-12-15T03:17:44;2.50;99.90
55693;DHT22;41590;53.366;5.212;2022-12-15T03:20:09;3.60;99.90
55693;DHT22;41590;53.366;5.212;2022-12-15T03:22:37;2.60;99.90
55693;DHT22;41590;53.366;5.212;2022-12-15T03:25:05;3.40;99.90
55693;DHT22;41590;53.366;5.212;2022-12-15T03:27:34;2.60;99.90
55693;DHT22;41590;53.366;5.212;2022-12-15T03:30:04;3.30;99.90
55693;DHT22;41590;53.366;5.212;2022-12-15T03:32:33;2.60;99.90
55693;DHT22;41590;53.366;5.212;2022-12-15T03:35:02;3.60;99.90
55693;DHT22;41590;53.366;5.212;2022-12-15T03:37:35;2.70;99.90
55693;DHT22;41590;53.366;5.212;2022-12-15T03:40:01;3.10;99.90
55693;DHT22;41590;53.366;5.212;2022-12-15T03:42:32;2.90;99.90
55693;DHT22;41590;53.366;5.212;2022-12-15T03:45:18;4.00;99.90
55693;DHT22;41590;53.366;5.212;2022-12-15T03:48:03;3.10;99.90
55693;DHT22;41590;53.366;5.212;2022-12-15T03:50:31;3.10;99.90
55693;DHT22;41590;53.366;5.212;2022-12-15T03:53:01;3.10;99.90
55693;DHT22;41590;53.366;5.212;2022-12-15T03:55:32;3.00;99.90
55693;DHT22;41590;53.366;5.212;2022-12-15T03:58:00;3.00;99.90
55693;DHT22;41590;53.366;5.212;2022-12-15T04:03:47;3.00;99.90
55693;DHT22;41590;53.366;5.212;2022-12-15T04:06:18;3.60;99.90
55693;DHT22;41590;53.366;5.212;2022-12-15T04:08:47;4.40;99.90
55693;DHT22;41590;53.366;5.212;2022-12-15T04:11:12;4.10;99.90
55693;DHT22;41590;53.366;5.212;2022-12-15T04:13:43;4.30;99.90
55693;DHT22;41590;53.366;5.212;2022-12-15T04:16:21;3.30;99.90
55693;DHT22;41590;53.366;5.212;2022-12-15T04:18:54;4.40;99.90
55693;DHT22;41590;53.366;5.212;2022-12-15T04:21:44;4.00;99.90
55693;DHT22;41590;53.366;5.212;2022-12-15T04:24:10;3.80;99.90
55693;DHT22;41590;53.366;5.212;2022-12-15T04:26:56;4.00;99.90
55693;DHT22;41590;53.366;5.212;2022-12-15T04:29:48;3.60;99.90
55693;DHT22;41590;53.366;5.212;2022-12-15T04:32:35;4.00;99.90
55693;DHT22;41590;53.366;5.212;2022-12-15T04:35:24;3.90;99.90
55693;DHT22;41590;53.366;5.212;2022-12-15T04:38:09;3.10;99.90
55693;DHT22;41590;53.366;5.212;2022-12-15T04:40:59;4.00;99.90
55693;DHT22;41590;53.366;5.212;2022-12-15T04:43:43;3.70;99.90
55693;DHT22;41590;53.366;5.212;2022-12-15T04:46:41;3.50;99.90
55693;DHT22;41590;53.366;5.212;2022-12-15T04:49:32;3.20;99.90
55693;DHT22;41590;53.366;5.212;2022-12-15T04:52:18;4.40;99.90
55693;DHT22;41590;53.366;5.212;2022-12-15T04:55:02;4.50;99.90
55693;DHT22;41590;53.366;5.212;2022-12-15T04:57:47;3.10;99.90
55693;DHT22;41590;53.366;5.212;2022-12-15T05:00:36;3.40;99.90
55693;DHT22;41590;53.366;5.212;2022-12-15T05:03:25;3.40;99.90
55693;DHT22;41590;53.366;5.212;2022-12-15T05:06:11;3.80;99.90
55693;DHT22;41590;53.366;5.212;2022-12-15T05:09:03;3.20;99.90
55693;DHT22;41590;53.366;5.212;2022-12-15T05:11:48;3.20;99.90
55693;DHT22;41590;53.366;5.212;2022-12-15T05:14:36;3.30;99.90
55693;DHT22;41590;53.366;5.212;2022-12-15T05:17:22;4.20;99.90
55693;DHT22;41590;53.366;5.212;2022-12-15T05:20:06;3.40;99.90
55693;DHT22;41590;53.366;5.212;2022-12-15T05:23:01;3.50;99.90
55693;DHT22;41590;53.366;5.212;2022-12-15T05:25:52;4.30;99.90
55693;DHT22;41590;53.366;5.212;2022-12-15T05:28:37;3.50;99.90
55693;DHT22;41590;53.366;5.212;2022-12-15T05:31:26;3.50;99.90
55693;DHT22;41590;53.366;5.212;2022-12-15T05:34:19;4.60;99.90
55693;DHT22;41590;53.366;5.212;2022-12-15T05:36:45;4.20;99.90
55693;DHT22;41590;53.366;5.212;2022-12-15T05:39:24;3.90;99.90
55693;DHT22;41590;53.366;5.212;2022-12-15T05:41:56;3.50;99.90
55693;DHT22;41590;53.366;5.212;2022-12-15T05:44:23;3.50;99.90
55693;DHT22;41590;53.366;5.212;2022-12-15T05:46:56;4.50;99.90
55693;DHT22;41590;53.366;5.212;2022-12-15T05:49:27;3.60;99.90
55693;DHT22;41590;53.366;5.212;2022-12-15T05:52:04;3.70;99.90
55693;DHT22;41590;53.366;5.212;2022-12-15T05:54:30;3.60;99.90
55693;DHT22;41590;53.366;5.212;2022-12-15T05:56:59;4.20;99.90
55693;DHT22;41590;53.366;5.212;2022-12-15T05:59:27;4.10;99.90
55693;DHT22;41590;53.366;5.212;2022-12-15T06:01:53;4.90;99.90
55693;DHT22;41590;53.366;5.212;2022-12-15T06:04:23;4.40;99.90
55693;DHT22;41590;53.366;5.212;2022-12-15T06:06:49;3.90;99.90
55693;DHT22;41590;53.366;5.212;2022-12-15T06:09:22;3.90;99.90
55693;DHT22;41590;53.366;5.212;2022-12-15T06:11:55;3.70;99.90
55693;DHT22;41590;53.366;5.212;2022-12-15T06:14:23;4.50;99.90
55693;DHT22;41590;53.366;5.212;2022-12-15T06:16:53;4.80;99.90
55693;DHT22;41590;53.366;5.212;2022-12-15T06:19:25;4.10;99.90
55693;DHT22;41590;53.366;5.212;2022-12-15T06:21:51;3.70;99.90
55693;DHT22;41590;53.366;5.212;2022-12-15T06:24:17;3.70;99.90
55693;DHT22;41590;53.366;5.212;2022-12-15T06:26:43;4.10;99.90
55693;DHT22;41590;53.366;5.212;2022-12-15T06:29:11;3.70;99.90
55693;DHT22;41590;53.366;5.212;2022-12-15T06:31:39;4.20;99.90
55693;DHT22;41590;53.366;5.212;2022-12-15T06:34:40;4.30;99.90
55693;DHT22;41590;53.366;5.212;2022-12-15T06:37:20;3.80;99.90
55693;DHT22;41590;53.366;5.212;2022-12-15T06:39:58;4.70;99.90
55693;DHT22;41590;53.366;5.212;2022-12-15T06:42:30;3.90;99.90
55693;DHT22;41590;53.366;5.212;2022-12-15T06:44:57;4.40;99.90
55693;DHT22;41590;53.366;5.212;2022-12-15T06:47:27;3.60;99.90
55693;DHT22;41590;53.366;5.212;2022-12-15T06:49:53;4.50;99.90
55693;DHT22;41590;53.366;5.212;2022-12-15T06:52:22;3.80;99.90
55693;DHT22;41590;53.366;5.212;2022-12-15T06:55:01;3.70;99.90
55693;DHT22;41590;53.366;5.212;2022-12-15T06:57:28;3.70;99.90
55693;DHT22;41590;53.366;5.212;2022-12-15T06:59:54;4.20;99.90
55693;DHT22;41590;53.366;5.212;2022-12-15T07:02:24;4.20;99.90
55693;DHT22;41590;53.366;5.212;2022-12-15T07:04:53;4.30;99.90
55693;DHT22;41590;53.366;5.212;2022-12-15T07:07:22;4.10;99.90
55693;DHT22;41590;53.366;5.212;2022-12-15T07:09:57;3.90;99.90
55693;DHT22;41590;53.366;5.212;2022-12-15T07:12:39;4.00;99.90
55693;DHT22;41590;53.366;5.212;2022-12-15T07:15:05;3.90;99.90
55693;DHT22;41590;53.366;5.212;2022-12-15T07:17:35;3.90;99.90
55693;DHT22;41590;53.366;5.212;2022-12-15T07:20:06;4.60;99.90
55693;DHT22;41590;53.366;5.212;2022-12-15T07:22:39;3.80;99.90
55693;DHT22;41590;53.366;5.212;2022-12-15T07:25:15;4.00;99.90
55693;DHT22;41590;53.366;5.212;2022-12-15T07:30:48;3.90;99.90
55693;DHT22;41590;53.366;5.212;2022-12-15T07:33:31;4.10;99.90
55693;DHT22;41590;53.366;5.212;2022-12-15T07:35:59;4.00;99.90
55693;DHT22;41590;53.366;5.212;2022-12-15T07:38:28;4.00;99.90
55693;DHT22;41590;53.366;5.212;2022-12-15T07:40:54;4.90;99.90
55693;DHT22;41590;53.366;5.212;2022-12-15T07:43:21;4.10;99.90
55693;DHT22;41590;53.366;5.212;2022-12-15T07:45:56;4.10;99.90
55693;DHT22;41590;53.366;5.212;2022-12-15T07:48:23;4.10;99.90
55693;DHT22;41590;53.366;5.212;2022-12-15T07:50:53;4.10;99.90
55693;DHT22;41590;53.366;5.212;2022-12-15T07:53:27;4.80;99.90
55693;DHT22;41590;53.366;5.212;2022-12-15T07:59:20;4.20;99.90
55693;DHT22;41590;53.366;5.212;2022-12-15T08:01:53;4.20;99.90
55693;DHT22;41590;53.366;5.212;2022-12-15T08:04:20;4.30;99.90
55693;DHT22;41590;53.366;5.212;2022-12-15T08:06:48;4.80;99.90
55693;DHT22;41590;53.366;5.212;2022-12-15T08:09:18;5.10;99.90
55693;DHT22;41590;53.366;5.212;2022-12-15T08:11:51;5.00;99.90
55693;DHT22;41590;53.366;5.212;2022-12-15T08:17:39;4.40;99.90
55693;DHT22;41590;53.366;5.212;2022-12-15T08:20:05;4.30;99.90
55693;DHT22;41590;53.366;5.212;2022-12-15T08:22:50;4.20;99.90
55693;DHT22;41590;53.366;5.212;2022-12-15T08:25:36;4.00;99.90
55693;DHT22;41590;53.366;5.212;2022-12-15T08:28:07;3.90;99.90
55693;DHT22;41590;53.366;5.212;2022-12-15T08:30:33;3.90;99.90
55693;DHT22;41590;53.366;5.212;2022-12-15T08:32:59;3.90;99.90
55693;DHT22;41590;53.366;5.212;2022-12-15T08:35:26;4.40;99.90
55693;DHT22;41590;53.366;5.212;2022-12-15T08:37:52;4.60;99.90
55693;DHT22;41590;53.366;5.212;2022-12-15T08:40:19;4.60;99.90
55693;DHT22;41590;53.366;5.212;2022-12-15T08:43:14;5.00;99.90
55693;DHT22;41590;53.366;5.212;2022-12-15T08:45:50;4.10;99.90
55693;DHT22;41590;53.366;5.212;2022-12-15T08:48:41;4.00;99.90
55693;DHT22;41590;53.366;5.212;2022-12-15T08:51:11;4.10;99.90
55693;DHT22;41590;53.366;5.212;2022-12-15T08:53:47;4.70;99.90
55693;DHT22;41590;53.366;5.212;2022-12-15T08:56:23;5.00;99.90
55693;DHT22;41590;53.366;5.212;2022-12-15T08:58:54;4.50;99.90
55693;DHT22;41590;53.366;5.212;2022-12-15T09:01:29;4.50;99.90
55693;DHT22;41590;53.366;5.212;2022-12-15T09:04:03;4.60;99.90
55693;DHT22;41590;53.366;5.212;2022-12-15T09:06:33;4.70;99.90
55693;DHT22;41590;53.366;5.212;2022-12-15T09:09:03;5.40;99.90
55693;DHT22;41590;53.366;5.212;2022-12-15T09:11:40;4.80;99.90
55693;DHT22;41590;53.366;5.212;2022-12-15T09:14:07;5.10;99.90
55693;DHT22;41590;53.366;5.212;2022-12-15T09:16:36;4.90;99.90
55693;DHT22;41590;53.366;5.212;2022-12-15T09:19:03;4.90;99.90
55693;DHT22;41590;53.366;5.212;2022-12-15T09:21:43;5.60;99.90
55693;DHT22;41590;53.366;5.212;2022-12-15T09:24:22;5.60;99.90
55693;DHT22;41590;53.366;5.212;2022-12-15T09:30:09;5.30;99.90
55693;DHT22;41590;53.366;5.212;2022-12-15T09:32:47;5.30;99.90
55693;DHT22;41590;53.366;5.212;2022-12-15T09:35:35;5.40;99.90
55693;DHT22;41590;53.366;5.212;2022-12-15T09:38:12;5.40;99.90
55693;DHT22;41590;53.366;5.212;2022-12-15T09:40:39;5.40;99.90
55693;DHT22;41590;53.366;5.212;2022-12-15T09:43:12;5.50;99.90
55693;DHT22;41590;53.366;5.212;2022-12-15T09:45:49;5.60;99.90
55693;DHT22;41590;53.366;5.212;2022-12-15T09:48:43;5.70;99.90
55693;DHT22;41590;53.366;5.212;2022-12-15T09:51:15;5.80;99.90
55693;DHT22;41590;53.366;5.212;2022-12-15T09:53:53;5.90;99.90
55693;DHT22;41590;53.366;5.212;2022-12-15T09:56:25;6.00;99.90
55693;DHT22;41590;53.366;5.212;2022-12-15T09:59:23;6.10;99.90
55693;DHT22;41590;53.366;5.212;2022-12-15T10:08:05;6.30;99.90
55693;DHT22;41590;53.366;5.212;2022-12-15T10:11:15;6.30;99.90
55693;DHT22;41590;53.366;5.212;2022-12-15T10:17:23;6.20;99.90
55693;DHT22;41590;53.366;5.212;2022-12-15T10:20:22;6.20;99.90
55693;DHT22;41590;53.366;5.212;2022-12-15T10:23:12;6.20;99.90
55693;DHT22;41590;53.366;5.212;2022-12-15T10:29:50;6.20;99.90
55693;DHT22;41590;53.366;5.212;2022-12-15T10:35:41;6.30;99.90
55693;DHT22;41590;53.366;5.212;2022-12-15T10:38:37;6.30;99.90
55693;DHT22;41590;53.366;5.212;2022-12-15T10:41:13;6.40;99.90
55693;DHT22;41590;53.366;5.212;2022-12-15T10:43:49;6.30;99.90
55693;DHT22;41590;53.366;5.212;2022-12-15T10:46:21;6.10;99.90
55693;DHT22;41590;53.366;5.212;2022-12-15T10:54:14;5.40;99.90
55693;DHT22;41590;53.366;5.212;2022-12-15T10:56:58;6.00;99.90
55693;DHT22;41590;53.366;5.212;2022-12-15T10:59:24;5.20;99.90
55693;DHT22;41590;53.366;5.212;2022-12-15T11:05:34;5.20;99.90
55693;DHT22;41590;53.366;5.212;2022-12-15T11:08:15;4.50;99.90
55693;DHT22;41590;53.366;5.212;2022-12-15T11:10:56;5.90;99.90
55693;DHT22;41590;53.366;5.212;2022-12-15T11:14:03;5.20;99.90
55693;DHT22;41590;53.366;5.212;2022-12-15T11:16:30;5.30;99.90
55693;DHT22;41590;53.366;5.212;2022-12-15T11:19:10;5.40;99.90
55693;DHT22;41590;53.366;5.212;2022-12-15T11:21:43;5.30;99.90
55693;DHT22;41590;53.366;5.212;2022-12-15T11:24:39;5.30;99.90
55693;DHT22;41590;53.366;5.212;2022-12-15T11:30:18;5.40;99.90
55693;DHT22;41590;53.366;5.212;2022-12-15T11:32:47;5.50;99.90
55693;DHT22;41590;53.366;5.212;2022-12-15T11:39:18;5.60;99.90
55693;DHT22;41590;53.366;5.212;2022-12-15T11:54:10;4.80;99.90
55693;DHT22;41590;53.366;5.212;2022-12-15T12:00:33;5.00;99.90
55693;DHT22;41590;53.366;5.212;2022-12-15T12:06:44;5.10;99.90
55693;DHT22;41590;53.366;5.212;2022-12-15T12:09:40;5.90;99.90
55693;DHT22;41590;53.366;5.212;2022-12-15T12:19:22;5.30;99.90
55693;DHT22;41590;53.366;5.212;2022-12-15T12:21:55;5.30;99.90
55693;DHT22;41590;53.366;5.212;2022-12-15T12:24:36;5.30;99.90
55693;DHT22;41590;53.366;5.212;2022-12-15T12:30:03;5.30;99.90
55693;DHT22;41590;53.366;5.212;2022-12-15T12:32:56;5.30;99.90
55693;DHT22;41590;53.366;5.212;2022-12-15T12:38:39;5.30;99.90
55693;DHT22;41590;53.366;5.212;2022-12-15T12:46:54;5.20;99.90
55693;DHT22;41590;53.366;5.212;2022-12-15T12:49:40;5.20;99.90
55693;DHT22;41590;53.366;5.212;2022-12-15T12:52:24;5.10;99.90
55693;DHT22;41590;53.366;5.212;2022-12-15T12:55:28;5.20;99.90
55693;DHT22;41590;53.366;5.212;2022-12-15T12:57:58;4.90;99.90
55693;DHT22;41590;53.366;5.212;2022-12-15T13:00:31;4.90;99.90
55693;DHT22;41590;53.366;5.212;2022-12-15T13:09:38;5.10;99.90
55693;DHT22;41590;53.366;5.212;2022-12-15T13:12:09;4.60;99.90
55693;DHT22;41590;53.366;5.212;2022-12-15T13:15:23;4.40;99.90
55693;DHT22;41590;53.366;5.212;2022-12-15T13:18:20;4.50;99.90
55693;DHT22;41590;53.366;5.212;2022-12-15T13:27:13;4.40;99.90
55693;DHT22;41590;53.366;5.212;2022-12-15T13:32:46;4.40;99.90
55693;DHT22;41590;53.366;5.212;2022-12-15T13:35:31;4.20;99.90
55693;DHT22;41590;53.366;5.212;2022-12-15T13:38:17;4.50;99.90
55693;DHT22;41590;53.366;5.212;2022-12-15T13:40:51;4.10;99.90
55693;DHT22;41590;53.366;5.212;2022-12-15T13:43:40;4.10;99.90
55693;DHT22;41590;53.366;5.212;2022-12-15T13:46:38;4.40;99.90
55693;DHT22;41590;53.366;5.212;2022-12-15T13:49:07;4.10;99.90
55693;DHT22;41590;53.366;5.212;2022-12-15T13:51:48;4.50;99.90
55693;DHT22;41590;53.366;5.212;2022-12-15T13:54:21;3.90;99.90
55693;DHT22;41590;53.366;5.212;2022-12-15T13:57:00;3.90;99.90
55693;DHT22;41590;53.366;5.212;2022-12-15T14:05:15;3.80;99.90
55693;DHT22;41590;53.366;5.212;2022-12-15T14:08:00;4.00;99.90
55693;DHT22;41590;53.366;5.212;2022-12-15T14:13:26;3.70;99.90
55693;DHT22;41590;53.366;5.212;2022-12-15T14:15:56;3.60;99.90
55693;DHT22;41590;53.366;5.212;2022-12-15T14:21:37;3.60;99.90
55693;DHT22;41590;53.366;5.212;2022-12-15T14:24:29;3.80;99.90
55693;DHT22;41590;53.366;5.212;2022-12-15T14:26:56;4.80;99.90
55693;DHT22;41590;53.366;5.212;2022-12-15T14:29:22;4.60;99.90
55693;DHT22;41590;53.366;5.212;2022-12-15T14:32:07;3.60;99.90
55693;DHT22;41590;53.366;5.212;2022-12-15T14:34:57;3.90;99.90
55693;DHT22;41590;53.366;5.212;2022-12-15T14:37:38;3.60;99.90
55693;DHT22;41590;53.366;5.212;2022-12-15T14:40:26;3.80;99.90
55693;DHT22;41590;53.366;5.212;2022-12-15T14:42:54;3.50;99.90
55693;DHT22;41590;53.366;5.212;2022-12-15T14:49:19;3.50;99.90
55693;DHT22;41590;53.366;5.212;2022-12-15T14:52:47;3.50;99.90
55693;DHT22;41590;53.366;5.212;2022-12-15T14:54:57;3.20;99.90
55693;DHT22;41590;53.366;5.212;2022-12-15T14:57:45;3.30;99.90
55693;DHT22;41590;53.366;5.212;2022-12-15T15:03:20;3.40;99.90
55693;DHT22;41590;53.366;5.212;2022-12-15T15:06:02;3.40;99.90
55693;DHT22;41590;53.366;5.212;2022-12-15T15:11:51;3.50;99.90
55693;DHT22;41590;53.366;5.212;2022-12-15T15:14:47;3.50;99.90
55693;DHT22;41590;53.366;5.212;2022-12-15T15:27:24;3.80;99.90
55693;DHT22;41590;53.366;5.212;2022-12-15T15:30:10;3.90;99.90
55693;DHT22;41590;53.366;5.212;2022-12-15T15:32:56;3.70;99.90
55693;DHT22;41590;53.366;5.212;2022-12-15T15:35:55;3.80;99.90
55693;DHT22;41590;53.366;5.212;2022-12-15T15:38:29;3.80;99.90
55693;DHT22;41590;53.366;5.212;2022-12-15T15:44:20;3.70;99.90
55693;DHT22;41590;53.366;5.212;2022-12-15T15:47:21;3.60;99.90
55693;DHT22;41590;53.366;5.212;2022-12-15T15:56:46;3.10;99.90
55693;DHT22;41590;53.366;5.212;2022-12-15T15:59:25;3.10;99.90
55693;DHT22;41590;53.366;5.212;2022-12-15T16:08:55;2.50;99.90
55693;DHT22;41590;53.366;5.212;2022-12-15T16:11:28;2.70;99.90
55693;DHT22;41590;53.366;5.212;2022-12-15T16:13:59;3.10;99.90
55693;DHT22;41590;53.366;5.212;2022-12-15T16:16:58;2.60;99.90
55693;DHT22;41590;53.366;5.212;2022-12-15T16:19:24;2.60;99.90
55693;DHT22;41590;53.366;5.212;2022-12-15T16:21:56;2.70;99.90
55693;DHT22;41590;53.366;5.212;2022-12-15T16:24:24;2.80;99.90
55693;DHT22;41590;53.366;5.212;2022-12-15T16:26:50;3.70;99.90
55693;DHT22;41590;53.366;5.212;2022-12-15T16:29:18;3.80;99.90
55693;DHT22;41590;53.366;5.212;2022-12-15T16:31:44;3.70;99.90
55693;DHT22;41590;53.366;5.212;2022-12-15T16:34:12;3.50;99.90
55693;DHT22;41590;53.366;5.212;2022-12-15T16:36:42;4.10;99.90
55693;DHT22;41590;53.366;5.212;2022-12-15T16:39:34;3.30;99.90
55693;DHT22;41590;53.366;5.212;2022-12-15T16:42:02;3.20;99.90
55693;DHT22;41590;53.366;5.212;2022-12-15T16:44:29;3.10;99.90
55693;DHT22;41590;53.366;5.212;2022-12-15T16:46:56;3.40;99.90
55693;DHT22;41590;53.366;5.212;2022-12-15T16:49:24;4.10;99.90
55693;DHT22;41590;53.366;5.212;2022-12-15T16:52:01;3.00;99.90
55693;DHT22;41590;53.366;5.212;2022-12-15T16:54:33;2.70;99.90
55693;DHT22;41590;53.366;5.212;2022-12-15T16:57:16;3.00;99.90
55693;DHT22;41590;53.366;5.212;2022-12-15T16:59:45;2.50;99.90
55693;DHT22;41590;53.366;5.212;2022-12-15T17:02:32;2.30;99.90
55693;DHT22;41590;53.366;5.212;2022-12-15T17:05:14;2.20;99.90
55693;DHT22;41590;53.366;5.212;2022-12-15T17:10:24;2.10;99.90
55693;DHT22;41590;53.366;5.212;2022-12-15T17:13:34;2.00;99.90
55693;DHT22;41590;53.366;5.212;2022-12-15T17:21:24;1.70;99.90
55693;DHT22;41590;53.366;5.212;2022-12-15T17:24:06;1.80;99.90
55693;DHT22;41590;53.366;5.212;2022-12-15T17:26:49;1.90;99.90
55693;DHT22;41590;53.366;5.212;2022-12-15T17:29:20;1.80;99.90
55693;DHT22;41590;53.366;5.212;2022-12-15T17:31:57;2.20;99.90
55693;DHT22;41590;53.366;5.212;2022-12-15T17:34:32;2.00;99.90
55693;DHT22;41590;53.366;5.212;2022-12-15T17:37:03;1.70;99.90
55693;DHT22;41590;53.366;5.212;2022-12-15T17:39:33;1.90;99.90
55693;DHT22;41590;53.366;5.212;2022-12-15T17:42:00;1.90;99.90
55693;DHT22;41590;53.366;5.212;2022-12-15T17:44:29;1.90;99.90
55693;DHT22;41590;53.366;5.212;2022-12-15T17:46:58;2.10;99.90
55693;DHT22;41590;53.366;5.212;2022-12-15T17:49:29;2.30;99.90
55693;DHT22;41590;53.366;5.212;2022-12-15T17:51:55;2.90;99.90
55693;DHT22;41590;53.366;5.212;2022-12-15T17:54:38;2.50;99.90
55693;DHT22;41590;53.366;5.212;2022-12-15T17:57:04;3.50;99.90
55693;DHT22;41590;53.366;5.212;2022-12-15T17:59:29;2.00;99.90
55693;DHT22;41590;53.366;5.212;2022-12-15T18:02:11;3.00;99.90
55693;DHT22;41590;53.366;5.212;2022-12-15T18:04:42;2.20;99.90
55693;DHT22;41590;53.366;5.212;2022-12-15T18:07:38;2.30;99.90
55693;DHT22;41590;53.366;5.212;2022-12-15T18:10:30;2.60;99.90
55693;DHT22;41590;53.366;5.212;2022-12-15T18:12:57;2.60;99.90
55693;DHT22;41590;53.366;5.212;2022-12-15T18:15:29;3.00;99.90
55693;DHT22;41590;53.366;5.212;2022-12-15T18:17:58;3.10;99.90
55693;DHT22;41590;53.366;5.212;2022-12-15T18:20:25;3.40;99.90
55693;DHT22;41590;53.366;5.212;2022-12-15T18:22:55;3.00;99.90
55693;DHT22;41590;53.366;5.212;2022-12-15T18:25:25;3.10;99.90
55693;DHT22;41590;53.366;5.212;2022-12-15T18:28:03;3.10;99.90
55693;DHT22;41590;53.366;5.212;2022-12-15T18:30:35;3.30;99.90
55693;DHT22;41590;53.366;5.212;2022-12-15T18:33:03;3.60;99.90
55693;DHT22;41590;53.366;5.212;2022-12-15T18:35:38;2.80;99.90
55693;DHT22;41590;53.366;5.212;2022-12-15T18:38:18;2.80;99.90
55693;DHT22;41590;53.366;5.212;2022-12-15T18:40:48;3.00;99.90
55693;DHT22;41590;53.366;5.212;2022-12-15T18:43:27;3.40;99.90
55693;DHT22;41590;53.366;5.212;2022-12-15T18:46:01;3.10;99.90
55693;DHT22;41590;53.366;5.212;2022-12-15T18:48:32;3.80;99.90
55693;DHT22;41590;53.366;5.212;2022-12-15T18:51:01;3.30;99.90
55693;DHT22;41590;53.366;5.212;2022-12-15T18:53:37;3.30;99.90
55693;DHT22;41590;53.366;5.212;2022-12-15T18:56:05;3.20;99.90
55693;DHT22;41590;53.366;5.212;2022-12-15T18:58:42;3.40;99.90
55693;DHT22;41590;53.366;5.212;2022-12-15T19:01:30;3.60;99.90
55693;DHT22;41590;53.366;5.212;2022-12-15T19:04:01;3.40;99.90
55693;DHT22;41590;53.366;5.212;2022-12-15T19:06:31;3.00;99.90
55693;DHT22;41590;53.366;5.212;2022-12-15T19:09:13;3.30;99.90
55693;DHT22;41590;53.366;5.212;2022-12-15T19:11:46;3.30;99.90
55693;DHT22;41590;53.366;5.212;2022-12-15T19:14:41;3.10;99.90
55693;DHT22;41590;53.366;5.212;2022-12-15T19:17:11;3.00;99.90
55693;DHT22;41590;53.366;5.212;2022-12-15T19:20:15;3.30;99.90
55693;DHT22;41590;53.366;5.212;2022-12-15T19:23:19;3.80;99.90
55693;DHT22;41590;53.366;5.212;2022-12-15T19:25:53;3.00;99.90
55693;DHT22;41590;53.366;5.212;2022-12-15T19:28:28;3.20;99.90
55693;DHT22;41590;53.366;5.212;2022-12-15T19:31:02;3.10;99.90
55693;DHT22;41590;53.366;5.212;2022-12-15T19:33:29;3.30;99.90
55693;DHT22;41590;53.366;5.212;2022-12-15T19:36:13;2.90;99.90
55693;DHT22;41590;53.366;5.212;2022-12-15T19:38:47;3.10;99.90
55693;DHT22;41590;53.366;5.212;2022-12-15T19:41:17;4.50;99.90
55693;DHT22;41590;53.366;5.212;2022-12-15T19:43:43;3.70;99.90
55693;DHT22;41590;53.366;5.212;2022-12-15T19:46:17;2.80;99.90
55693;DHT22;41590;53.366;5.212;2022-12-15T19:48:50;3.00;99.90
55693;DHT22;41590;53.366;5.212;2022-12-15T19:51:20;2.60;99.90
55693;DHT22;41590;53.366;5.212;2022-12-15T19:53:49;3.00;99.90
55693;DHT22;41590;53.366;5.212;2022-12-15T19:56:30;3.10;99.90
55693;DHT22;41590;53.366;5.212;2022-12-15T19:59:01;4.10;99.90
55693;DHT22;41590;53.366;5.212;2022-12-15T20:01:28;4.10;99.90
55693;DHT22;41590;53.366;5.212;2022-12-15T20:03:55;2.80;99.90